createdAt,value
2018-12-21T00:01:37.245Z,8.60
2018-12-21T00:04:05.663Z,8.60
2018-12-21T00:06:34.058Z,8.60
2018-12-21T00:09:04.122Z,8.60
2018-12-21T00:11:33.059Z,8.60
2018-12-21T00:14:01.653Z,8.60
2018-12-21T00:16:30.434Z,8.60
2018-12-21T00:18:59.565Z,8.60
2018-12-21T00:21:28.026Z,8.60
2018-12-21T00:23:56.481Z,8.60
2018-12-21T00:26:25.585Z,8.60
2018-12-21T00:28:54.252Z,8.60
2018-12-21T00:31:28.056Z,8.60
2018-12-21T00:34:02.121Z,8.50
2018-12-21T00:36:36.681Z,8.50
2018-12-21T00:39:12.577Z,8.50
2018-12-21T00:41:46.762Z,8.50
2018-12-21T00:44:35.905Z,8.60
2018-12-21T00:47:13.745Z,8.50
2018-12-21T00:49:42.819Z,8.50
2018-12-21T00:52:12.067Z,8.50
2018-12-21T00:54:40.461Z,8.50
2018-12-21T00:57:09.154Z,8.50
2018-12-21T00:59:37.550Z,8.50
2018-12-21T01:02:06.156Z,8.50
2018-12-21T01:04:34.602Z,8.50
2018-12-21T01:07:03.234Z,8.60
2018-12-21T01:09:32.670Z,8.60
2018-12-21T01:12:01.491Z,8.60
2018-12-21T01:14:30.006Z,8.60
2018-12-21T01:16:58.681Z,8.60
2018-12-21T01:19:27.141Z,8.50
2018-12-21T01:21:55.870Z,8.50
2018-12-21T01:24:24.714Z,8.50
2018-12-21T01:26:53.181Z,8.50
2018-12-21T01:29:21.577Z,8.50
2018-12-21T01:31:50.128Z,8.50
2018-12-21T01:34:18.887Z,8.50
2018-12-21T01:36:48.440Z,8.50
2018-12-21T01:39:17.255Z,8.50
2018-12-21T01:41:46.025Z,8.50
2018-12-21T01:44:14.436Z,8.50
2018-12-21T01:46:43.375Z,8.50
2018-12-21T01:49:11.862Z,8.50
2018-12-21T01:51:47.037Z,8.50
2018-12-21T01:54:13.709Z,8.50
2018-12-21T01:56:42.166Z,8.50
2018-12-21T01:59:10.724Z,8.50
2018-12-21T02:01:39.434Z,8.50
2018-12-21T02:04:08.438Z,8.50
2018-12-21T02:06:37.018Z,8.50
2018-12-21T02:09:07.493Z,8.50
2018-12-21T02:11:36.005Z,8.50
2018-12-21T02:14:04.470Z,8.50
2018-12-21T02:16:33.121Z,8.50
2018-12-21T02:19:01.970Z,8.50
2018-12-21T02:21:30.701Z,8.50
2018-12-21T02:23:59.089Z,8.50
2018-12-21T02:26:27.518Z,8.50
2018-12-21T02:28:56.028Z,8.50
2018-12-21T02:31:24.712Z,8.50
2018-12-21T02:33:53.120Z,8.50
2018-12-21T02:36:21.857Z,8.50
2018-12-21T02:38:50.307Z,8.50
2018-12-21T02:41:19.249Z,8.50
2018-12-21T02:43:47.633Z,8.50
2018-12-21T02:46:16.004Z,8.50
2018-12-21T02:48:44.438Z,8.50
2018-12-21T02:51:12.800Z,8.50
2018-12-21T02:53:41.214Z,8.50
2018-12-21T02:56:10.005Z,8.50
2018-12-21T02:58:38.506Z,8.50
2018-12-21T03:01:07.397Z,8.50
2018-12-21T03:03:42.440Z,8.50
2018-12-21T03:06:10.832Z,8.50
2018-12-21T03:08:39.820Z,8.50
2018-12-21T03:11:08.786Z,8.50
2018-12-21T03:13:37.432Z,8.60
2018-12-21T03:16:05.823Z,8.60
2018-12-21T03:18:35.498Z,8.60
2018-12-21T03:21:04.466Z,8.60
2018-12-21T03:23:33.618Z,8.60
2018-12-21T03:26:01.997Z,8.60
2018-12-21T03:28:30.533Z,8.60
2018-12-21T03:30:59.009Z,8.60
2018-12-21T03:33:27.378Z,8.60
2018-12-21T03:35:55.766Z,8.60
2018-12-21T03:38:24.666Z,8.60
2018-12-21T03:40:53.507Z,8.60
2018-12-21T03:43:22.387Z,8.60
2018-12-21T03:45:51.897Z,8.60
2018-12-21T03:48:20.670Z,8.60
2018-12-21T03:50:49.238Z,8.60
2018-12-21T03:53:17.884Z,8.60
2018-12-21T03:55:46.341Z,8.60
2018-12-21T03:58:15.484Z,8.60
2018-12-21T04:00:45.874Z,8.60
2018-12-21T04:03:14.291Z,8.60
2018-12-21T04:05:42.686Z,8.60
2018-12-21T04:08:11.440Z,8.60
2018-12-21T04:10:40.311Z,8.70
2018-12-21T04:13:08.765Z,8.70
2018-12-21T04:15:40.775Z,8.70
2018-12-21T04:18:11.855Z,8.70
2018-12-21T04:20:44.766Z,8.70
2018-12-21T04:23:13.392Z,8.70
2018-12-21T04:25:41.970Z,8.70
2018-12-21T04:28:10.705Z,8.70
2018-12-21T04:30:39.078Z,8.80
2018-12-21T04:33:07.927Z,8.70
2018-12-21T04:35:36.322Z,8.80
2018-12-21T04:38:05.076Z,8.80
2018-12-21T04:40:33.470Z,8.80
2018-12-21T04:43:02.085Z,8.80
2018-12-21T04:45:30.812Z,8.80
2018-12-21T04:47:59.686Z,8.80
2018-12-21T04:50:28.105Z,8.80
2018-12-21T04:52:56.516Z,8.90
2018-12-21T04:55:25.589Z,8.90
2018-12-21T04:57:54.291Z,8.90
2018-12-21T05:00:23.720Z,8.90
2018-12-21T05:02:52.128Z,8.90
2018-12-21T05:05:20.488Z,8.90
2018-12-21T05:07:48.905Z,8.90
2018-12-21T05:10:17.269Z,8.90
2018-12-21T05:12:45.887Z,8.90
2018-12-21T05:15:14.599Z,8.90
2018-12-21T05:17:42.968Z,8.90
2018-12-21T05:20:11.341Z,9.00
2018-12-21T05:22:39.693Z,9.00
2018-12-21T05:25:08.379Z,9.00
2018-12-21T05:27:37.567Z,9.00
2018-12-21T05:30:07.951Z,9.00
2018-12-21T05:32:36.370Z,9.00
2018-12-21T05:35:05.421Z,9.00
2018-12-21T05:37:33.814Z,9.00
2018-12-21T05:40:02.174Z,9.00
2018-12-21T05:42:30.552Z,9.00
2018-12-21T05:44:59.388Z,9.10
2018-12-21T05:47:27.815Z,9.00
2018-12-21T05:49:56.558Z,9.00
2018-12-21T05:52:25.955Z,9.00
2018-12-21T05:54:54.988Z,9.10
2018-12-21T05:57:23.638Z,9.10
2018-12-21T05:59:52.124Z,9.10
2018-12-21T06:02:20.667Z,9.10
2018-12-21T06:04:49.388Z,9.10
2018-12-21T06:07:18.075Z,9.10
2018-12-21T06:09:47.153Z,9.10
2018-12-21T06:12:16.139Z,9.10
2018-12-21T06:14:44.639Z,9.20
2018-12-21T06:17:13.579Z,9.20
2018-12-21T06:19:42.410Z,9.20
2018-12-21T06:22:11.542Z,9.30
2018-12-21T06:24:46.763Z,9.20
2018-12-21T06:27:15.188Z,9.30
2018-12-21T06:29:43.633Z,9.30
2018-12-21T06:32:12.166Z,9.30
2018-12-21T06:34:40.797Z,9.30
2018-12-21T06:37:09.740Z,9.40
2018-12-21T06:39:38.167Z,9.40
2018-12-21T06:42:06.922Z,9.40
2018-12-21T06:44:35.263Z,9.40
2018-12-21T06:47:03.774Z,9.50
2018-12-21T06:49:32.390Z,9.40
2018-12-21T06:52:00.810Z,9.40
2018-12-21T06:54:29.214Z,9.50
2018-12-21T06:56:57.624Z,9.50
2018-12-21T06:59:27.406Z,9.50
2018-12-21T07:01:55.947Z,9.50
2018-12-21T07:04:24.509Z,9.50
2018-12-21T07:06:53.427Z,9.60
2018-12-21T07:09:22.962Z,9.60
2018-12-21T07:11:51.312Z,9.70
2018-12-21T07:14:19.896Z,9.70
2018-12-21T07:16:49.334Z,9.70
2018-12-21T07:19:18.722Z,9.70
2018-12-21T07:21:48.021Z,9.80
2018-12-21T07:24:16.879Z,9.70
2018-12-21T07:26:45.503Z,9.80
2018-12-21T07:29:14.487Z,9.80
2018-12-21T07:31:42.932Z,10.10
2018-12-21T07:34:11.636Z,10.10
2018-12-21T07:36:40.156Z,10.00
2018-12-21T07:39:08.899Z,10.00
2018-12-21T07:41:38.090Z,10.00
2018-12-21T07:44:07.202Z,10.00
2018-12-21T07:46:35.676Z,10.00
2018-12-21T07:49:04.177Z,10.00
2018-12-21T07:51:32.968Z,10.00
2018-12-21T07:54:02.085Z,10.00
2018-12-21T07:56:30.566Z,10.10
2018-12-21T07:58:59.416Z,10.10
2018-12-21T08:01:28.328Z,10.10
2018-12-21T08:03:56.782Z,10.10
2018-12-21T08:06:25.189Z,10.10
2018-12-21T08:08:54.216Z,10.20
2018-12-21T08:11:25.935Z,10.20
2018-12-21T08:13:54.356Z,10.20
2018-12-21T08:16:23.001Z,10.20
2018-12-21T08:18:52.451Z,10.20
2018-12-21T08:21:21.218Z,10.20
2018-12-21T08:23:49.846Z,10.20
2018-12-21T08:26:18.248Z,10.20
2018-12-21T08:28:47.647Z,10.30
2018-12-21T08:31:16.099Z,10.30
2018-12-21T08:33:44.691Z,10.30
2018-12-21T08:36:13.897Z,10.30
2018-12-21T08:38:43.027Z,10.40
2018-12-21T08:41:11.564Z,10.40
2018-12-21T08:43:39.952Z,10.50
2018-12-21T08:46:08.814Z,10.50
2018-12-21T08:48:37.237Z,10.50
2018-12-21T08:51:06.358Z,10.50
2018-12-21T08:53:34.953Z,10.50
2018-12-21T08:56:03.667Z,10.60
2018-12-21T08:58:32.057Z,10.60
2018-12-21T09:01:00.553Z,10.70
2018-12-21T09:03:28.941Z,10.70
2018-12-21T09:05:57.343Z,10.80
2018-12-21T09:08:25.824Z,10.80
2018-12-21T09:10:54.332Z,10.80
2018-12-21T09:13:22.890Z,10.90
2018-12-21T09:15:51.315Z,10.90
2018-12-21T09:18:19.713Z,10.90
2018-12-21T09:20:48.528Z,11.00
2018-12-21T09:23:16.936Z,11.10
2018-12-21T09:25:45.394Z,11.10
2018-12-21T09:28:13.835Z,11.10
2018-12-21T09:30:42.321Z,11.20
2018-12-21T09:33:10.848Z,11.20
2018-12-21T09:35:39.729Z,11.30
2018-12-21T09:38:08.070Z,11.30
2018-12-21T09:40:36.490Z,11.30
2018-12-21T09:43:04.921Z,11.40
2018-12-21T09:45:33.716Z,11.40
2018-12-21T09:48:02.169Z,11.50
2018-12-21T09:50:30.630Z,11.50
2018-12-21T09:52:59.242Z,11.60
2018-12-21T09:55:27.639Z,11.70
2018-12-21T09:57:55.993Z,11.70
2018-12-21T10:00:24.808Z,11.80
2018-12-21T10:02:53.292Z,11.90
2018-12-21T10:05:21.785Z,11.90
2018-12-21T10:07:50.467Z,12.00
2018-12-21T10:10:19.104Z,12.00
2018-12-21T10:12:47.567Z,12.10
2018-12-21T10:15:16.568Z,12.10
2018-12-21T10:17:45.041Z,12.10
2018-12-21T10:20:13.558Z,12.20
2018-12-21T10:22:42.143Z,12.20
2018-12-21T10:25:10.966Z,12.30
2018-12-21T10:27:39.860Z,12.30
2018-12-21T10:30:10.302Z,12.40
2018-12-21T10:32:39.068Z,12.40
2018-12-21T10:35:07.939Z,12.40
2018-12-21T10:37:36.922Z,12.40
2018-12-21T10:40:06.541Z,12.40
2018-12-21T10:42:35.028Z,12.40
2018-12-21T10:45:03.607Z,12.40
2018-12-21T10:47:32.356Z,12.40
2018-12-21T10:50:01.123Z,12.40
2018-12-21T10:52:30.229Z,12.40
2018-12-21T10:55:04.134Z,12.40
2018-12-21T10:57:32.552Z,12.40
2018-12-21T11:00:01.237Z,12.40
2018-12-21T11:02:29.678Z,12.40
2018-12-21T11:04:58.083Z,12.50
2018-12-21T11:07:26.481Z,12.50
2018-12-21T11:09:55.035Z,12.50
2018-12-21T11:12:23.573Z,12.60
2018-12-21T11:14:51.957Z,12.50
2018-12-21T11:17:20.729Z,12.60
2018-12-21T11:19:49.673Z,12.60
2018-12-21T11:22:21.482Z,12.60
2018-12-21T11:24:50.012Z,12.60
2018-12-21T11:27:19.156Z,12.70
2018-12-21T11:29:49.525Z,12.60
2018-12-21T11:32:18.223Z,12.60
2018-12-21T11:34:46.641Z,12.60
2018-12-21T11:37:15.105Z,12.60
2018-12-21T11:39:43.810Z,12.60
2018-12-21T11:42:12.451Z,12.60
2018-12-21T11:44:41.250Z,12.60
2018-12-21T11:47:09.996Z,12.60
2018-12-21T11:49:38.496Z,12.60
2018-12-21T11:52:07.192Z,12.60
2018-12-21T11:54:43.956Z,12.60
2018-12-21T11:57:06.230Z,12.60
2018-12-21T11:59:35.119Z,12.60
2018-12-21T12:02:03.611Z,12.60
2018-12-21T12:04:31.977Z,12.60
2018-12-21T12:07:02.028Z,12.70
2018-12-21T12:09:35.385Z,12.70
2018-12-21T12:12:04.085Z,12.70
2018-12-21T12:14:33.195Z,12.70
2018-12-21T12:17:01.687Z,12.70
2018-12-21T12:19:30.170Z,12.60
2018-12-21T12:21:58.661Z,12.60
2018-12-21T12:24:27.306Z,12.60
2018-12-21T12:26:56.653Z,12.60
2018-12-21T12:29:25.117Z,12.50
2018-12-21T12:31:54.475Z,12.60
2018-12-21T12:34:23.127Z,12.60
2018-12-21T12:36:52.208Z,12.60
2018-12-21T12:39:20.634Z,12.60
2018-12-21T12:41:49.400Z,12.60
2018-12-21T12:44:17.796Z,12.60
2018-12-21T12:46:46.449Z,12.70
2018-12-21T12:49:14.862Z,12.70
2018-12-21T12:51:43.503Z,12.70
2018-12-21T12:54:12.542Z,12.60
2018-12-21T12:56:47.831Z,12.60
2018-12-21T12:59:16.311Z,12.60
2018-12-21T13:01:44.872Z,12.70
2018-12-21T13:04:13.321Z,12.70
2018-12-21T13:06:42.729Z,12.70
2018-12-21T13:09:11.127Z,12.70
2018-12-21T13:11:42.408Z,12.70
2018-12-21T13:14:11.190Z,12.60
2018-12-21T13:16:40.418Z,12.50
2018-12-21T13:19:09.410Z,12.50
2018-12-21T13:21:37.926Z,12.50
2018-12-21T13:24:06.810Z,12.50
2018-12-21T13:26:35.263Z,12.50
2018-12-21T13:29:03.712Z,12.40
2018-12-21T13:31:32.567Z,12.50
2018-12-21T13:34:01.363Z,12.40
2018-12-21T13:36:29.788Z,12.40
2018-12-21T13:38:58.205Z,12.50
2018-12-21T13:41:26.742Z,12.40
2018-12-21T13:43:55.570Z,12.40
2018-12-21T13:46:24.603Z,12.40
2018-12-21T13:48:52.974Z,12.30
2018-12-21T13:51:21.705Z,12.30
2018-12-21T13:53:50.203Z,12.20
2018-12-21T13:56:18.809Z,12.20
2018-12-21T13:58:47.609Z,12.20
2018-12-21T14:01:16.737Z,12.20
2018-12-21T14:03:45.069Z,12.10
2018-12-21T14:06:14.151Z,12.10
2018-12-21T14:08:42.637Z,12.10
2018-12-21T14:11:11.115Z,12.00
2018-12-21T14:13:39.490Z,12.00
2018-12-21T14:16:07.948Z,12.00
2018-12-21T14:18:37.107Z,11.90
2018-12-21T14:21:05.855Z,11.90
2018-12-21T14:23:34.387Z,11.90
2018-12-21T14:26:02.818Z,11.90
2018-12-21T14:28:31.766Z,11.90
2018-12-21T14:31:00.526Z,11.80
2018-12-21T14:33:35.400Z,11.80
2018-12-21T14:36:03.942Z,11.80
2018-12-21T14:38:32.847Z,11.70
2018-12-21T14:41:01.302Z,11.70
2018-12-21T14:43:29.723Z,11.70
2018-12-21T14:45:58.900Z,11.70
2018-12-21T14:48:27.483Z,11.60
2018-12-21T14:50:56.627Z,11.60
2018-12-21T14:53:25.445Z,11.60
2018-12-21T14:55:53.898Z,11.60
2018-12-21T14:58:22.286Z,11.60
2018-12-21T15:00:51.414Z,11.80
2018-12-21T15:03:19.763Z,11.70
2018-12-21T15:05:48.290Z,11.60
2018-12-21T15:08:18.014Z,11.60
2018-12-21T15:10:46.552Z,11.50
2018-12-21T15:13:15.067Z,11.50
2018-12-21T15:15:43.463Z,11.50
2018-12-21T15:18:12.637Z,11.50
2018-12-21T15:20:41.167Z,11.50
2018-12-21T15:23:09.589Z,11.50
2018-12-21T15:25:45.908Z,11.40
2018-12-21T15:28:08.993Z,11.40
2018-12-21T15:30:38.153Z,11.30
2018-12-21T15:33:06.830Z,11.30
2018-12-21T15:35:35.239Z,11.30
2018-12-21T15:38:03.620Z,11.30
2018-12-21T15:40:32.408Z,11.30
2018-12-21T15:43:01.411Z,11.30
2018-12-21T15:45:29.894Z,11.30
2018-12-21T15:47:58.296Z,11.20
2018-12-21T15:50:26.727Z,11.30
2018-12-21T15:52:56.408Z,11.30
2018-12-21T15:55:24.894Z,11.30
2018-12-21T15:57:53.458Z,11.30
2018-12-21T16:00:22.906Z,11.30
2018-12-21T16:02:53.982Z,11.30
2018-12-21T16:05:22.444Z,11.30
2018-12-21T16:07:50.955Z,11.30
2018-12-21T16:10:19.434Z,11.30
2018-12-21T16:12:47.973Z,11.40
2018-12-21T16:15:16.357Z,11.40
2018-12-21T16:17:45.229Z,11.40
2018-12-21T16:20:15.040Z,11.40
2018-12-21T16:22:43.685Z,11.40
2018-12-21T16:25:12.338Z,11.40
2018-12-21T16:27:41.054Z,11.40
2018-12-21T16:30:11.840Z,11.40
2018-12-21T16:32:40.460Z,11.40
2018-12-21T16:35:08.948Z,11.40
2018-12-21T16:37:37.426Z,11.40
2018-12-21T16:40:07.885Z,11.50
2018-12-21T16:42:36.326Z,11.40
2018-12-21T16:45:05.893Z,11.50
2018-12-21T16:47:34.315Z,11.50
2018-12-21T16:50:02.738Z,11.50
2018-12-21T16:52:31.177Z,11.50
2018-12-21T16:54:59.598Z,11.50
2018-12-21T16:57:28.352Z,11.50
2018-12-21T16:59:56.767Z,11.50
2018-12-21T17:02:25.553Z,11.50
2018-12-21T17:04:55.394Z,11.60
2018-12-21T17:07:23.804Z,11.60
2018-12-21T17:09:52.941Z,11.50
2018-12-21T17:12:21.350Z,11.60
2018-12-21T17:14:49.778Z,11.60
2018-12-21T17:17:18.290Z,11.50
2018-12-21T17:19:46.678Z,11.60
2018-12-21T17:22:15.070Z,11.70
2018-12-21T17:24:43.436Z,11.60
2018-12-21T17:27:12.497Z,11.60
2018-12-21T17:29:40.909Z,11.60
2018-12-21T17:32:09.366Z,11.50
2018-12-21T17:34:37.785Z,11.50
2018-12-21T17:37:10.713Z,11.50
2018-12-21T17:39:39.369Z,11.50
2018-12-21T17:42:08.018Z,11.50
2018-12-21T17:44:36.575Z,11.50
2018-12-21T17:47:05.160Z,11.50
2018-12-21T17:49:33.508Z,11.50
2018-12-21T17:52:02.049Z,11.60
2018-12-21T17:54:30.613Z,11.60
2018-12-21T17:56:59.024Z,11.50
2018-12-21T17:59:27.408Z,11.50
2018-12-21T18:01:55.780Z,11.50
2018-12-21T18:04:26.688Z,11.50
2018-12-21T18:06:55.165Z,11.50
2018-12-21T18:09:25.684Z,11.50
2018-12-21T18:11:57.251Z,11.60
2018-12-21T18:14:24.529Z,11.50
2018-12-21T18:16:52.879Z,11.30
2018-12-21T18:19:21.277Z,11.10
2018-12-21T18:21:55.304Z,11.00
2018-12-21T18:24:24.698Z,10.90
2018-12-21T18:26:53.164Z,10.80
2018-12-21T18:29:27.870Z,10.70
2018-12-21T18:32:04.610Z,10.60
2018-12-21T18:34:36.021Z,10.60
2018-12-21T18:37:07.372Z,10.60
2018-12-21T18:39:35.916Z,10.50
2018-12-21T18:42:05.731Z,10.50
2018-12-21T18:44:34.965Z,10.50
2018-12-21T18:47:03.372Z,10.50
2018-12-21T18:49:31.951Z,10.50
2018-12-21T18:52:00.428Z,10.40
2018-12-21T18:54:29.129Z,10.40
2018-12-21T18:57:01.358Z,10.30
2018-12-21T18:59:29.716Z,10.30
2018-12-21T19:01:58.382Z,10.30
2018-12-21T19:04:26.790Z,10.30
2018-12-21T19:06:55.134Z,10.30
2018-12-21T19:09:24.561Z,10.30
2018-12-21T19:11:52.985Z,10.30
2018-12-21T19:14:21.455Z,10.30
2018-12-21T19:16:50.096Z,10.30
2018-12-21T19:19:19.128Z,10.20
2018-12-21T19:21:49.959Z,10.20
2018-12-21T19:24:18.563Z,10.20
2018-12-21T19:26:55.572Z,10.20
2018-12-21T19:29:17.919Z,10.20
2018-12-21T19:31:46.297Z,10.30
2018-12-21T19:34:14.715Z,10.20
2018-12-21T19:36:43.923Z,10.30
2018-12-21T19:39:12.754Z,10.30
2018-12-21T19:41:41.227Z,10.30
2018-12-21T19:44:09.572Z,10.30
2018-12-21T19:46:40.807Z,10.30
2018-12-21T19:49:09.360Z,10.30
2018-12-21T19:51:37.717Z,10.30
2018-12-21T19:54:06.620Z,10.40
2018-12-21T19:57:38.831Z,10.30
2018-12-21T20:00:08.295Z,10.30
2018-12-21T20:02:36.923Z,10.20
2018-12-21T20:05:06.497Z,10.20
2018-12-21T20:07:34.937Z,10.20
2018-12-21T20:10:04.154Z,10.20
2018-12-21T20:12:32.761Z,10.20
2018-12-21T20:15:01.388Z,10.20
2018-12-21T20:17:29.744Z,10.10
2018-12-21T20:19:58.235Z,10.20
2018-12-21T20:22:26.669Z,10.10
2018-12-21T20:24:57.433Z,10.20
2018-12-21T20:27:25.910Z,10.20
2018-12-21T20:29:54.269Z,10.20
2018-12-21T20:32:22.865Z,10.20
2018-12-21T20:34:51.249Z,10.20
2018-12-21T20:37:20.142Z,10.30
2018-12-21T20:39:48.961Z,10.20
2018-12-21T20:42:17.364Z,10.20
2018-12-21T20:44:45.742Z,10.20
2018-12-21T20:47:14.644Z,10.30
2018-12-21T20:49:43.175Z,10.30
2018-12-21T20:52:11.661Z,10.20
2018-12-21T20:54:41.491Z,10.30
2018-12-21T20:57:12.735Z,10.30
2018-12-21T20:59:41.848Z,10.30
2018-12-21T21:02:10.376Z,10.30
2018-12-21T21:04:38.734Z,10.30
2018-12-21T21:07:07.156Z,10.30
2018-12-21T21:09:35.777Z,10.30
2018-12-21T21:12:10.752Z,10.30
2018-12-21T21:14:39.121Z,10.30
2018-12-21T21:17:07.480Z,10.30
2018-12-21T21:19:38.162Z,10.30
2018-12-21T21:22:07.082Z,10.30
2018-12-21T21:24:35.485Z,10.20
2018-12-21T21:27:04.069Z,10.20
2018-12-21T21:29:32.510Z,10.30
2018-12-21T21:32:00.994Z,10.20
2018-12-21T21:34:29.401Z,10.30
2018-12-21T21:36:58.329Z,10.30
2018-12-21T21:39:26.738Z,10.30
2018-12-21T21:41:55.088Z,10.30
2018-12-21T21:44:23.525Z,10.30
2018-12-21T21:46:52.315Z,10.30
2018-12-21T21:49:20.712Z,10.30
2018-12-21T21:51:49.164Z,10.30
2018-12-21T21:54:18.528Z,10.30
2018-12-21T21:56:46.920Z,10.30
2018-12-21T21:59:15.455Z,10.30
2018-12-21T22:01:44.021Z,10.30
2018-12-21T22:04:12.407Z,10.30
2018-12-21T22:06:41.624Z,10.30
2018-12-21T22:09:10.017Z,10.40
2018-12-21T22:11:38.446Z,10.40
2018-12-21T22:14:06.827Z,10.30
2018-12-21T22:16:41.776Z,10.30
2018-12-21T22:19:10.451Z,10.30
2018-12-21T22:21:39.758Z,10.30
2018-12-21T22:24:08.120Z,10.30
2018-12-21T22:26:36.537Z,10.30
2018-12-21T22:29:04.961Z,10.30
2018-12-21T22:31:33.327Z,10.30
2018-12-21T22:34:01.724Z,10.30
2018-12-21T22:36:30.693Z,10.30
2018-12-21T22:38:59.049Z,10.30
2018-12-21T22:41:27.463Z,10.30
2018-12-21T22:43:57.013Z,10.30
2018-12-21T22:46:25.615Z,10.30
2018-12-21T22:48:54.050Z,10.30
2018-12-21T22:51:22.649Z,10.30
2018-12-21T22:53:51.205Z,10.30
2018-12-21T22:56:19.716Z,10.30
2018-12-21T22:58:48.301Z,10.30
2018-12-21T23:01:16.664Z,10.30
2018-12-21T23:03:45.084Z,10.30
2018-12-21T23:06:13.830Z,10.30
2018-12-21T23:08:42.196Z,10.30
2018-12-21T23:11:10.627Z,10.40
2018-12-21T23:13:39.049Z,10.30
2018-12-21T23:16:07.428Z,10.40
2018-12-21T23:18:36.467Z,10.40
2018-12-21T23:21:05.206Z,10.40
2018-12-21T23:23:33.638Z,10.40
2018-12-21T23:26:02.143Z,10.40
2018-12-21T23:28:30.548Z,10.40
2018-12-21T23:30:59.087Z,10.40
2018-12-21T23:33:27.985Z,10.40
2018-12-21T23:35:56.794Z,10.30
2018-12-21T23:38:25.148Z,10.40
2018-12-21T23:40:53.710Z,10.30
2018-12-21T23:43:22.446Z,10.30
2018-12-21T23:45:51.926Z,10.30
2018-12-21T23:48:20.377Z,10.30
2018-12-21T23:50:48.752Z,10.30
2018-12-21T23:53:17.550Z,10.30
2018-12-21T23:55:46.249Z,10.30
2018-12-21T23:58:14.624Z,10.30
